createdAt,value
2023-05-08T03:47:29.353Z,14.20
2023-05-08T03:49:57.321Z,14.20
2023-05-08T03:52:24.877Z,14.30
2023-05-08T03:54:51.530Z,14.30
2023-05-08T03:57:18.359Z,14.40
2023-05-08T04:00:03.364Z,14.40
2023-05-08T04:02:42.468Z,14.40
2023-05-08T04:05:24.566Z,14.40
2023-05-08T04:07:56.838Z,14.40
2023-05-08T04:10:39.801Z,14.40
2023-05-08T04:13:14.136Z,14.40
2023-05-08T04:16:05.419Z,14.50
2023-05-08T04:18:37.144Z,14.50
2023-05-08T04:21:09.889Z,14.50
2023-05-08T04:23:38.756Z,14.50
2023-05-08T04:26:07.539Z,14.60
2023-05-08T04:28:34.932Z,14.50
2023-05-08T04:31:03.414Z,14.60
2023-05-08T04:33:31.041Z,14.60
2023-05-08T04:36:01.114Z,14.70
2023-05-08T04:38:27.812Z,14.70
2023-05-08T04:40:54.705Z,14.70
2023-05-08T04:43:21.394Z,14.70
2023-05-08T04:45:48.091Z,14.70
2023-05-08T04:48:14.734Z,14.70
2023-05-08T04:50:41.362Z,14.70
2023-05-08T04:53:08.027Z,14.80
2023-05-08T04:55:34.671Z,14.80
2023-05-08T04:58:01.320Z,14.80
2023-05-08T05:00:28.039Z,14.80
2023-05-08T05:02:54.683Z,14.90
2023-05-08T05:05:21.412Z,14.90
2023-05-08T05:07:48.058Z,14.90
2023-05-08T05:10:14.741Z,14.80
2023-05-08T05:12:41.430Z,14.80
2023-05-08T05:15:08.526Z,14.70
2023-05-08T05:17:35.507Z,14.70
2023-05-08T05:20:02.922Z,14.60
2023-05-08T05:22:29.644Z,14.50
2023-05-08T05:24:56.429Z,14.50
2023-05-08T05:27:23.806Z,14.40
2023-05-08T05:29:50.663Z,14.40
2023-05-08T05:32:17.271Z,14.40
2023-05-08T05:34:43.878Z,14.40
2023-05-08T05:37:10.489Z,14.40
2023-05-08T05:39:37.784Z,14.40
2023-05-08T05:42:04.587Z,14.40
2023-05-08T05:44:31.205Z,14.50
2023-05-08T05:46:57.850Z,14.60
2023-05-08T05:49:24.495Z,14.60
2023-05-08T05:51:51.188Z,14.60
2023-05-08T05:54:17.833Z,14.80
2023-05-08T05:56:44.534Z,14.80
2023-05-08T05:59:11.338Z,14.80
2023-05-08T06:01:38.704Z,15.00
2023-05-08T06:04:05.769Z,15.00
2023-05-08T06:06:32.451Z,15.10
2023-05-08T06:08:59.619Z,15.20
2023-05-08T06:11:26.358Z,15.30
2023-05-08T06:13:52.990Z,15.40
2023-05-08T06:16:24.216Z,15.40
2023-05-08T06:18:51.209Z,15.50
2023-05-08T06:21:17.919Z,15.50
2023-05-08T06:23:44.548Z,15.50
2023-05-08T06:26:11.178Z,15.50
2023-05-08T06:28:37.937Z,15.60
2023-05-08T06:31:04.725Z,15.60
2023-05-08T06:33:31.986Z,15.50
2023-05-08T06:35:58.594Z,15.40
2023-05-08T06:38:25.271Z,15.30
2023-05-08T06:40:52.002Z,15.20
2023-05-08T06:43:18.632Z,15.10
2023-05-08T06:45:45.750Z,15.00
2023-05-08T06:48:13.129Z,15.00
2023-05-08T06:50:40.764Z,15.00
2023-05-08T06:53:07.940Z,14.90
2023-05-08T06:55:34.526Z,14.90
2023-05-08T06:58:01.219Z,15.00
2023-05-08T07:00:27.969Z,14.90
2023-05-08T07:02:54.680Z,14.90
2023-05-08T07:05:21.645Z,14.90
2023-05-08T07:07:48.311Z,15.00
2023-05-08T07:10:15.073Z,15.10
2023-05-08T07:12:41.788Z,15.20
2023-05-08T07:15:23.937Z,15.20
2023-05-08T07:17:52.060Z,15.10
2023-05-08T07:20:18.821Z,15.10
2023-05-08T07:22:45.417Z,15.20
2023-05-08T07:25:12.769Z,15.20
2023-05-08T07:27:39.686Z,15.30
2023-05-08T07:30:07.007Z,15.40
2023-05-08T07:32:33.770Z,15.40
2023-05-08T07:35:03.172Z,15.30
2023-05-08T07:37:29.832Z,15.40
2023-05-08T07:39:56.540Z,15.50
2023-05-08T07:42:23.294Z,15.60
2023-05-08T07:44:54.927Z,15.60
2023-05-08T07:47:22.616Z,15.60
2023-05-08T07:49:49.350Z,15.70
2023-05-08T07:52:15.974Z,15.80
2023-05-08T07:54:42.645Z,15.80
2023-05-08T07:57:09.403Z,16.00
2023-05-08T07:59:36.420Z,16.20
2023-05-08T08:02:03.122Z,16.30
2023-05-08T08:04:30.048Z,16.30
2023-05-08T08:06:57.325Z,16.40
2023-05-08T08:09:24.242Z,16.60
2023-05-08T08:11:51.020Z,16.70
2023-05-08T08:14:17.849Z,16.70
2023-05-08T08:16:44.635Z,16.70
2023-05-08T08:19:11.414Z,16.70
2023-05-08T08:21:43.299Z,16.70
2023-05-08T08:24:10.222Z,16.70
2023-05-08T08:26:36.960Z,16.50
2023-05-08T08:29:04.416Z,16.70
2023-05-08T08:31:31.139Z,16.70
2023-05-08T08:33:58.003Z,16.90
2023-05-08T08:36:24.651Z,17.10
2023-05-08T08:38:51.676Z,17.20
2023-05-08T08:41:18.424Z,17.40
2023-05-08T08:43:45.190Z,17.40
2023-05-08T08:46:16.567Z,17.50
2023-05-08T08:48:47.385Z,17.70
2023-05-08T08:51:32.960Z,17.70
2023-05-08T08:54:12.656Z,17.70
2023-05-08T08:56:42.763Z,18.00
2023-05-08T08:59:10.994Z,18.40
2023-05-08T09:01:40.544Z,18.60
2023-05-08T09:04:07.419Z,18.70
2023-05-08T09:06:38.114Z,18.90
2023-05-08T09:09:05.581Z,19.10
2023-05-08T09:11:32.422Z,19.30
2023-05-08T09:13:59.523Z,19.20
2023-05-08T09:16:28.516Z,19.10
2023-05-08T09:18:55.430Z,19.40
2023-05-08T09:21:25.222Z,19.90
2023-05-08T09:23:59.868Z,20.80
2023-05-08T09:26:40.550Z,21.80
2023-05-08T09:29:24.314Z,22.70
2023-05-08T09:31:52.928Z,23.20
2023-05-08T09:34:29.363Z,22.90
2023-05-08T09:37:11.031Z,22.90
2023-05-08T09:39:41.347Z,22.70
2023-05-08T09:42:08.355Z,22.50
2023-05-08T09:44:54.266Z,22.50
2023-05-08T09:47:25.235Z,22.90
2023-05-08T09:50:05.556Z,22.20
2023-05-08T09:52:33.213Z,21.80
2023-05-08T09:55:08.956Z,21.30
2023-05-08T09:57:39.237Z,20.50
2023-05-08T10:00:08.859Z,19.90
2023-05-08T10:02:36.883Z,19.60
2023-05-08T10:05:05.881Z,19.30
2023-05-08T10:07:34.691Z,19.30
2023-05-08T10:10:05.781Z,19.50
2023-05-08T10:12:33.533Z,19.60
2023-05-08T10:15:00.583Z,20.00
2023-05-08T10:17:44.101Z,19.90
2023-05-08T10:20:14.062Z,20.10
2023-05-08T10:22:43.748Z,20.10
2023-05-08T10:25:17.397Z,20.20
2023-05-08T10:28:13.091Z,20.20
2023-05-08T10:30:48.909Z,19.90
2023-05-08T10:33:19.952Z,19.90
2023-05-08T10:35:47.247Z,20.00
2023-05-08T10:38:16.295Z,20.10
2023-05-08T10:40:43.473Z,20.30
2023-05-08T10:43:11.289Z,21.20
2023-05-08T10:45:39.003Z,22.50
2023-05-08T10:48:11.401Z,23.70
2023-05-08T10:50:56.485Z,24.20
2023-05-08T10:53:50.902Z,23.90
2023-05-08T10:56:17.533Z,23.80
2023-05-08T10:58:44.186Z,23.90
2023-05-08T11:01:12.453Z,24.30
2023-05-08T11:03:41.733Z,24.20
2023-05-08T11:06:08.853Z,24.90
2023-05-08T11:08:48.021Z,25.40
2023-05-08T11:11:38.408Z,25.50
2023-05-08T11:14:07.775Z,25.50
2023-05-08T11:17:03.643Z,25.60
2023-05-08T11:19:30.408Z,25.60
2023-05-08T11:22:12.916Z,25.40
2023-05-08T11:24:41.386Z,25.00
2023-05-08T11:27:08.050Z,24.60
2023-05-08T11:29:36.154Z,24.10
2023-05-08T11:32:02.866Z,23.30
2023-05-08T11:34:45.296Z,22.60
2023-05-08T11:37:23.872Z,21.80
2023-05-08T11:39:50.679Z,21.30
2023-05-08T11:42:28.825Z,21.00
2023-05-08T11:45:05.453Z,20.70
2023-05-08T11:47:39.858Z,20.30
2023-05-08T11:50:08.293Z,20.40
2023-05-08T11:52:36.147Z,20.60
2023-05-08T11:55:07.921Z,20.10
2023-05-08T11:57:35.065Z,19.70
2023-05-08T12:00:12.720Z,19.50
2023-05-08T12:02:41.539Z,19.20
2023-05-08T12:05:10.127Z,18.90
2023-05-08T12:07:47.079Z,18.60
2023-05-08T12:10:15.667Z,18.50
2023-05-08T12:12:44.253Z,18.30
2023-05-08T12:15:13.149Z,18.10
2023-05-08T12:17:39.957Z,17.90
2023-05-08T12:20:14.194Z,17.60
2023-05-08T12:22:42.077Z,17.50
2023-05-08T12:25:11.800Z,17.40
2023-05-08T12:27:39.119Z,17.20
2023-05-08T12:30:10.621Z,17.10
2023-05-08T12:32:39.319Z,16.90
2023-05-08T12:35:08.156Z,16.80
2023-05-08T12:37:35.553Z,16.80
2023-05-08T12:40:03.082Z,16.70
2023-05-08T12:42:46.434Z,16.60
2023-05-08T12:45:20.360Z,16.50
2023-05-08T12:47:51.685Z,16.00
2023-05-08T12:50:25.085Z,15.50
2023-05-08T12:52:52.305Z,15.30
2023-05-08T12:55:25.532Z,15.20
2023-05-08T12:58:15.184Z,15.30
2023-05-08T13:00:43.571Z,15.40
2023-05-08T13:03:21.548Z,15.50
2023-05-08T13:05:48.391Z,15.60
2023-05-08T13:08:15.054Z,15.60
2023-05-08T13:10:55.421Z,15.70
2023-05-08T13:13:23.924Z,15.80
2023-05-08T13:15:52.112Z,15.80
2023-05-08T13:18:19.935Z,15.90
2023-05-08T13:20:46.825Z,15.90
2023-05-08T13:23:13.562Z,16.00
2023-05-08T13:25:41.256Z,16.10
2023-05-08T13:28:09.709Z,16.20
2023-05-08T13:30:36.955Z,16.20
2023-05-08T13:33:04.795Z,16.20
2023-05-08T13:35:32.274Z,16.30
2023-05-08T13:37:59.444Z,16.40
2023-05-08T13:40:26.575Z,16.50
2023-05-08T13:42:53.394Z,16.50
2023-05-08T13:45:20.148Z,16.60
2023-05-08T13:47:47.950Z,16.60
2023-05-08T13:50:16.093Z,16.50
2023-05-08T13:52:42.972Z,16.50
2023-05-08T13:55:13.789Z,16.50
2023-05-08T13:57:41.444Z,16.80
2023-05-08T14:00:09.449Z,17.30
2023-05-08T14:02:37.467Z,17.70
2023-05-08T14:05:07.161Z,18.10
2023-05-08T14:07:34.082Z,18.50
2023-05-08T14:10:00.830Z,18.80
2023-05-08T14:12:27.458Z,19.10
2023-05-08T14:14:54.084Z,19.30
2023-05-08T14:17:20.716Z,19.50
2023-05-08T14:19:47.399Z,19.60
2023-05-08T14:22:14.071Z,19.60
2023-05-08T14:24:40.949Z,19.60
2023-05-08T14:27:07.610Z,19.30
2023-05-08T14:29:34.559Z,19.30
2023-05-08T14:32:01.613Z,19.40
2023-05-08T14:34:28.291Z,19.60
2023-05-08T14:36:54.907Z,19.70
2023-05-08T14:39:21.647Z,19.70
2023-05-08T14:42:05.796Z,19.80
2023-05-08T14:44:35.303Z,19.80
2023-05-08T14:47:01.947Z,19.90
2023-05-08T14:52:16.369Z,20.20
2023-05-08T14:54:43.494Z,20.10
2023-05-08T14:57:10.337Z,19.80
2023-05-08T14:59:38.604Z,19.60
2023-05-08T15:02:08.385Z,19.60
2023-05-08T15:04:37.220Z,19.60
2023-05-08T15:07:05.253Z,19.70
2023-05-08T15:09:31.879Z,19.70
2023-05-08T15:11:58.579Z,19.50
2023-05-08T15:14:25.241Z,19.20
2023-05-08T15:16:51.912Z,18.60
2023-05-08T15:19:18.632Z,18.60
2023-05-08T15:21:45.335Z,18.50
2023-05-08T15:24:11.992Z,18.40
2023-05-08T15:26:38.680Z,18.10
2023-05-08T15:29:05.401Z,17.90
2023-05-08T15:31:32.061Z,17.80
2023-05-08T15:33:58.739Z,18.00
2023-05-08T15:36:28.133Z,18.20
2023-05-08T15:38:55.105Z,18.50
2023-05-08T15:41:21.757Z,18.90
2023-05-08T15:43:48.513Z,19.30
2023-05-08T15:46:15.267Z,19.50
2023-05-08T15:48:41.985Z,19.20
2023-05-08T15:51:08.632Z,19.10
2023-05-08T15:53:35.428Z,19.20
2023-05-08T15:56:02.052Z,19.30
2023-05-08T15:58:28.660Z,19.30
2023-05-08T16:00:56.783Z,19.20
2023-05-08T16:03:24.022Z,19.10
2023-05-08T16:05:50.749Z,19.00
2023-05-08T16:08:17.319Z,18.70
2023-05-08T16:10:43.985Z,18.60
2023-05-08T16:13:10.663Z,18.40
2023-05-08T16:15:37.374Z,18.30
2023-05-08T16:18:04.324Z,18.30
2023-05-08T16:20:32.105Z,18.30
2023-05-08T16:23:00.040Z,18.30
2023-05-08T16:25:26.705Z,18.20
2023-05-08T16:27:53.465Z,18.20
2023-05-08T16:30:20.188Z,18.10
2023-05-08T16:32:47.022Z,18.00
2023-05-08T16:35:14.509Z,18.00
2023-05-08T16:37:41.545Z,18.10
2023-05-08T16:40:09.360Z,18.00
2023-05-08T16:42:36.959Z,18.00
2023-05-08T16:45:04.988Z,17.80
2023-05-08T16:47:31.956Z,17.70
2023-05-08T16:49:58.825Z,17.60
2023-05-08T16:52:25.835Z,17.60
2023-05-08T16:54:52.741Z,17.50
2023-05-08T16:57:19.389Z,17.60
2023-05-08T16:59:46.010Z,17.60
2023-05-08T17:02:18.302Z,17.60
2023-05-08T17:04:47.116Z,17.70
2023-05-08T17:07:17.246Z,17.80
2023-05-08T17:09:44.475Z,17.90
2023-05-08T17:12:11.220Z,17.90
2023-05-08T17:14:39.837Z,17.90
2023-05-08T17:17:06.905Z,18.00
2023-05-08T17:19:33.749Z,18.00
2023-05-08T17:22:00.458Z,18.00
2023-05-08T17:24:27.488Z,17.90
2023-05-08T17:26:54.139Z,17.70
2023-05-08T17:29:20.743Z,17.60
2023-05-08T17:31:47.405Z,17.60
2023-05-08T17:34:14.127Z,17.50
2023-05-08T17:36:41.025Z,17.50
2023-05-08T17:39:08.469Z,17.50
2023-05-08T17:41:35.161Z,17.50
2023-05-08T17:44:01.921Z,17.50
2023-05-08T17:46:28.609Z,17.50
2023-05-08T17:48:55.278Z,17.40
2023-05-08T17:51:21.910Z,17.40
2023-05-08T17:53:48.650Z,17.30
2023-05-08T17:56:20.263Z,17.30
2023-05-08T17:58:46.972Z,17.20
2023-05-08T18:01:13.721Z,17.10
2023-05-08T18:03:40.682Z,17.10
2023-05-08T18:06:07.948Z,17.10
2023-05-08T18:08:34.613Z,17.10
2023-05-08T18:11:01.277Z,17.10
2023-05-08T18:13:28.083Z,17.10
2023-05-08T18:15:54.742Z,17.10
2023-05-08T18:18:21.422Z,17.10
2023-05-08T18:20:48.251Z,17.20
2023-05-08T18:23:14.892Z,17.10
2023-05-08T18:25:41.665Z,17.10
2023-05-08T18:28:08.448Z,17.10
2023-05-08T18:30:36.356Z,17.10
2023-05-08T18:33:03.080Z,17.10
2023-05-08T18:35:29.835Z,17.00
2023-05-08T18:37:56.495Z,17.00
2023-05-08T18:40:23.125Z,16.90
2023-05-08T18:42:49.907Z,16.80
2023-05-08T18:45:16.634Z,16.60
2023-05-08T18:47:43.367Z,16.50
2023-05-08T18:50:10.669Z,16.40
2023-05-08T18:52:37.460Z,16.40
2023-05-08T18:55:04.328Z,16.40
2023-05-08T18:57:32.026Z,16.40
2023-05-08T18:59:58.710Z,16.40
2023-05-08T19:02:27.861Z,16.30
2023-05-08T19:04:54.825Z,16.30
2023-05-08T19:07:21.450Z,16.30
2023-05-08T19:09:48.206Z,16.30
2023-05-08T19:12:14.996Z,16.30
2023-05-08T19:14:41.680Z,16.30
2023-05-08T19:17:08.307Z,16.30
2023-05-08T19:19:34.939Z,16.30
2023-05-08T19:22:01.698Z,16.20
2023-05-08T19:24:29.887Z,16.30
2023-05-08T19:26:59.811Z,16.30
2023-05-08T19:29:26.532Z,16.20
2023-05-08T19:31:53.159Z,16.20
2023-05-08T19:34:20.004Z,16.20
2023-05-08T19:36:46.848Z,16.20
2023-05-08T19:39:14.564Z,16.30
2023-05-08T19:41:41.557Z,16.20
2023-05-08T19:44:08.258Z,16.10
2023-05-08T19:46:34.890Z,16.00
2023-05-08T19:49:01.596Z,16.00
2023-05-08T19:51:28.397Z,16.00
2023-05-08T19:53:55.067Z,15.90
2023-05-08T19:56:22.587Z,15.90
2023-05-08T19:58:49.316Z,16.00
2023-05-08T20:01:15.941Z,16.00
2023-05-08T20:03:42.710Z,16.00
2023-05-08T20:06:09.414Z,16.10
2023-05-08T20:08:36.146Z,16.00
2023-05-08T20:11:04.035Z,16.00
2023-05-08T20:13:30.773Z,16.00
2023-05-08T20:15:58.667Z,15.90
2023-05-08T20:18:25.853Z,15.80
2023-05-08T20:20:52.444Z,15.60
2023-05-08T20:23:19.095Z,15.50
2023-05-08T20:25:47.687Z,15.50
2023-05-08T20:28:15.292Z,15.50
2023-05-08T20:30:42.048Z,15.60
2023-05-08T20:33:08.822Z,15.60
2023-05-08T20:35:36.001Z,15.60
2023-05-08T20:38:02.724Z,15.60
2023-05-08T20:40:29.383Z,15.60
2023-05-08T20:42:56.055Z,15.60
2023-05-08T20:45:22.689Z,15.70
2023-05-08T20:47:49.356Z,15.60
2023-05-08T20:50:16.357Z,15.60
2023-05-08T20:52:43.185Z,15.60
2023-05-08T20:55:10.128Z,15.60
2023-05-08T20:57:36.778Z,15.60
2023-05-08T21:00:03.928Z,15.60
2023-05-08T21:02:30.649Z,15.60
2023-05-08T21:04:57.342Z,15.60
2023-05-08T21:07:23.981Z,15.60
2023-05-08T21:09:50.628Z,15.60
2023-05-08T21:12:17.292Z,15.50
2023-05-08T21:14:43.943Z,15.50
2023-05-08T21:17:10.724Z,15.40
2023-05-08T21:19:37.562Z,15.40
2023-05-08T21:22:04.911Z,15.30
2023-05-08T21:24:31.617Z,15.20
2023-05-08T21:26:59.642Z,15.20
2023-05-08T21:29:26.500Z,15.20
2023-05-08T21:31:55.370Z,15.20
2023-05-08T21:34:22.181Z,15.20
2023-05-08T21:36:49.321Z,15.10
2023-05-08T21:39:15.899Z,15.00
2023-05-08T21:41:43.318Z,15.00
2023-05-08T21:44:12.850Z,15.00
2023-05-08T21:46:39.840Z,14.90
2023-05-08T21:49:06.594Z,14.90
2023-05-08T21:51:33.513Z,14.90
2023-05-08T21:54:00.174Z,14.90
2023-05-08T21:56:26.767Z,14.80
2023-05-08T21:58:59.391Z,14.80
2023-05-08T22:01:26.149Z,14.80
2023-05-08T22:03:52.942Z,14.80
2023-05-08T22:06:19.715Z,14.80
2023-05-08T22:08:46.421Z,14.90
2023-05-08T22:11:13.137Z,14.90
2023-05-08T22:13:39.785Z,14.80
2023-05-08T22:16:07.213Z,14.90
2023-05-08T22:18:33.903Z,14.90
2023-05-08T22:21:00.540Z,14.80
2023-05-08T22:23:27.550Z,14.80
2023-05-08T22:25:54.292Z,14.70
2023-05-08T22:28:21.033Z,14.80
2023-05-08T22:30:47.673Z,14.70
2023-05-08T22:33:14.331Z,14.80
2023-05-08T22:35:41.034Z,14.70
2023-05-08T22:38:07.704Z,14.70
2023-05-08T22:40:34.427Z,14.70
2023-05-08T22:43:01.559Z,14.70
2023-05-08T22:45:28.469Z,14.60
2023-05-08T22:47:55.681Z,14.60
2023-05-08T22:50:22.416Z,14.70
2023-05-08T22:52:49.049Z,14.70
2023-05-08T22:55:16.054Z,14.70
2023-05-08T22:57:43.305Z,14.70
